sensor_id;sensor_type;location;lat;lon;timestamp;pressure;altitude;pressure_sealevel;temperature;humidity
7918;BME280;4004;42.624;23.386;2022-09-13T00:00:52;93987.13;;;15.09;95.06
7918;BME280;4004;42.624;23.386;2022-09-13T00:03:19;93991.00;;;15.08;94.97
7918;BME280;4004;42.624;23.386;2022-09-13T00:05:46;93983.25;;;15.13;94.84
7918;BME280;4004;42.624;23.386;2022-09-13T00:08:13;93978.97;;;15.16;94.95
7918;BME280;4004;42.624;23.386;2022-09-13T00:10:42;93980.16;;;15.08;95.93
7918;BME280;4004;42.624;23.386;2022-09-13T00:13:11;93972.81;;;15.05;96.76
7918;BME280;4004;42.624;23.386;2022-09-13T00:15:43;93975.50;;;14.98;97.41
7918;BME280;4004;42.624;23.386;2022-09-13T00:18:10;93970.09;;;15.05;97.46
7918;BME280;4004;42.624;23.386;2022-09-13T00:20:37;93970.50;;;15.14;96.78
7918;BME280;4004;42.624;23.386;2022-09-13T00:23:04;93971.66;;;15.13;96.70
7918;BME280;4004;42.624;23.386;2022-09-13T00:25:31;93964.69;;;15.08;96.95
7918;BME280;4004;42.624;23.386;2022-09-13T00:27:58;93962.34;;;15.07;97.45
7918;BME280;4004;42.624;23.386;2022-09-13T00:30:24;93961.22;;;15.15;97.44
7918;BME280;4004;42.624;23.386;2022-09-13T00:32:53;93952.28;;;15.18;97.07
7918;BME280;4004;42.624;23.386;2022-09-13T00:35:19;93952.31;;;15.15;97.55
7918;BME280;4004;42.624;23.386;2022-09-13T00:37:46;93950.75;;;15.24;96.74
7918;BME280;4004;42.624;23.386;2022-09-13T00:40:13;93948.03;;;15.24;97.22
7918;BME280;4004;42.624;23.386;2022-09-13T00:42:40;93940.66;;;15.36;96.12
7918;BME280;4004;42.624;23.386;2022-09-13T00:45:14;93949.56;;;15.36;96.13
7918;BME280;4004;42.624;23.386;2022-09-13T00:47:45;93946.88;;;15.32;96.70
7918;BME280;4004;42.624;23.386;2022-09-13T00:50:17;93949.56;;;15.40;96.08
7918;BME280;4004;42.624;23.386;2022-09-13T00:52:48;93944.53;;;15.42;95.61
7918;BME280;4004;42.624;23.386;2022-09-13T00:55:21;93934.88;;;15.41;95.61
7918;BME280;4004;42.624;23.386;2022-09-13T00:57:50;93944.94;;;15.47;95.29
7918;BME280;4004;42.624;23.386;2022-09-13T01:00:18;93931.38;;;15.40;95.98
7918;BME280;4004;42.624;23.386;2022-09-13T01:02:48;93933.69;;;15.38;96.07
7918;BME280;4004;42.624;23.386;2022-09-13T01:05:21;93920.16;;;15.38;95.99
7918;BME280;4004;42.624;23.386;2022-09-13T01:07:49;93938.72;;;15.47;95.43
7918;BME280;4004;42.624;23.386;2022-09-13T01:10:16;93935.25;;;15.50;94.89
7918;BME280;4004;42.624;23.386;2022-09-13T01:12:47;93942.97;;;15.44;95.49
7918;BME280;4004;42.624;23.386;2022-09-13T01:15:17;93942.19;;;15.51;94.53
7918;BME280;4004;42.624;23.386;2022-09-13T01:17:45;93944.13;;;15.54;93.92
7918;BME280;4004;42.624;23.386;2022-09-13T01:20:13;93937.56;;;15.48;94.26
7918;BME280;4004;42.624;23.386;2022-09-13T01:23:06;93929.44;;;15.48;94.51
7918;BME280;4004;42.624;23.386;2022-09-13T01:26:02;93933.66;;;15.56;94.38
7918;BME280;4004;42.624;23.386;2022-09-13T01:28:58;93936.75;;;15.62;93.28
7918;BME280;4004;42.624;23.386;2022-09-13T01:31:35;93933.28;;;15.54;93.96
7918;BME280;4004;42.624;23.386;2022-09-13T01:34:15;93935.25;;;15.46;94.38
7918;BME280;4004;42.624;23.386;2022-09-13T01:37:08;93935.22;;;15.43;94.91
7918;BME280;4004;42.624;23.386;2022-09-13T01:39:52;93931.78;;;15.39;95.05
7918;BME280;4004;42.624;23.386;2022-09-13T01:42:29;93922.47;;;15.54;94.26
7918;BME280;4004;42.624;23.386;2022-09-13T01:45:11;93930.19;;;15.48;94.68
7918;BME280;4004;42.624;23.386;2022-09-13T01:47:47;93922.06;;;15.55;94.39
7918;BME280;4004;42.624;23.386;2022-09-13T01:50:19;93914.69;;;15.56;94.00
7918;BME280;4004;42.624;23.386;2022-09-13T01:52:53;93924.41;;;15.50;94.50
7918;BME280;4004;42.624;23.386;2022-09-13T01:55:28;93924.00;;;15.55;94.29
7918;BME280;4004;42.624;23.386;2022-09-13T01:58:02;93919.75;;;15.50;94.43
7918;BME280;4004;42.624;23.386;2022-09-13T02:00:34;93918.56;;;15.55;94.16
7918;BME280;4004;42.624;23.386;2022-09-13T02:03:05;93922.06;;;15.45;94.61
7918;BME280;4004;42.624;23.386;2022-09-13T02:05:39;93914.75;;;15.42;95.09
7918;BME280;4004;42.624;23.386;2022-09-13T02:08:09;93919.38;;;15.45;94.96
7918;BME280;4004;42.624;23.386;2022-09-13T02:10:42;93919.78;;;15.29;95.77
7918;BME280;4004;42.624;23.386;2022-09-13T02:13:14;93920.56;;;15.22;96.55
7918;BME280;4004;42.624;23.386;2022-09-13T02:15:45;93913.63;;;15.10;97.24
7918;BME280;4004;42.624;23.386;2022-09-13T02:18:16;93922.13;;;15.16;97.11
7918;BME280;4004;42.624;23.386;2022-09-13T02:20:47;93913.63;;;15.18;97.31
7918;BME280;4004;42.624;23.386;2022-09-13T02:23:18;93912.84;;;15.21;96.75
7918;BME280;4004;42.624;23.386;2022-09-13T02:25:48;93917.06;;;15.29;96.49
7918;BME280;4004;42.624;23.386;2022-09-13T02:28:20;93916.34;;;15.21;96.59
7918;BME280;4004;42.624;23.386;2022-09-13T02:30:51;93918.66;;;15.16;96.92
7918;BME280;4004;42.624;23.386;2022-09-13T02:33:22;93920.59;;;15.15;97.07
7918;BME280;4004;42.624;23.386;2022-09-13T02:35:55;93921.38;;;15.12;97.37
7918;BME280;4004;42.624;23.386;2022-09-13T02:38:30;93915.56;;;15.06;97.18
7918;BME280;4004;42.624;23.386;2022-09-13T02:41:12;93924.47;;;14.96;98.54
7918;BME280;4004;42.624;23.386;2022-09-13T02:43:46;93920.22;;;14.91;99.20
7918;BME280;4004;42.624;23.386;2022-09-13T02:46:21;93923.69;;;14.96;98.82
7918;BME280;4004;42.624;23.386;2022-09-13T02:48:58;93924.47;;;14.96;98.45
7918;BME280;4004;42.624;23.386;2022-09-13T02:51:32;93922.94;;;14.99;98.71
7918;BME280;4004;42.624;23.386;2022-09-13T02:54:08;93915.56;;;14.88;98.42
7918;BME280;4004;42.624;23.386;2022-09-13T02:56:45;93925.66;;;14.81;99.62
7918;BME280;4004;42.624;23.386;2022-09-13T02:59:15;93925.25;;;14.79;100.00
7918;BME280;4004;42.624;23.386;2022-09-13T03:01:46;93922.16;;;14.77;100.00
7918;BME280;4004;42.624;23.386;2022-09-13T03:04:15;93922.94;;;14.70;100.00
7918;BME280;4004;42.624;23.386;2022-09-13T03:06:42;93925.22;;;14.64;100.00
7918;BME280;4004;42.624;23.386;2022-09-13T03:09:09;93926.78;;;14.65;100.00
7918;BME280;4004;42.624;23.386;2022-09-13T03:11:55;93928.34;;;14.70;100.00
7918;BME280;4004;42.624;23.386;2022-09-13T03:14:32;93917.91;;;14.68;100.00
7918;BME280;4004;42.624;23.386;2022-09-13T03:17:17;93922.16;;;14.59;100.00
7918;BME280;4004;42.624;23.386;2022-09-13T03:20:02;93932.16;;;14.51;100.00
7918;BME280;4004;42.624;23.386;2022-09-13T03:22:45;93938.38;;;14.55;100.00
7918;BME280;4004;42.624;23.386;2022-09-13T03:25:19;93929.06;;;14.52;100.00
7918;BME280;4004;42.624;23.386;2022-09-13T03:28:00;93931.00;;;14.52;100.00
7918;BME280;4004;42.624;23.386;2022-09-13T03:30:29;93924.03;;;14.44;100.00
7918;BME280;4004;42.624;23.386;2022-09-13T03:33:03;93924.00;;;14.40;100.00
7918;BME280;4004;42.624;23.386;2022-09-13T03:35:37;93925.19;;;14.46;100.00
7918;BME280;4004;42.624;23.386;2022-09-13T03:38:08;93924.03;;;14.51;100.00
7918;BME280;4004;42.624;23.386;2022-09-13T03:40:42;93930.22;;;14.48;100.00
7918;BME280;4004;42.624;23.386;2022-09-13T03:43:14;93930.59;;;14.54;100.00
7918;BME280;4004;42.624;23.386;2022-09-13T03:45:45;93929.47;;;14.58;100.00
7918;BME280;4004;42.624;23.386;2022-09-13T03:48:14;93921.75;;;14.57;100.00
7918;BME280;4004;42.624;23.386;2022-09-13T03:50:44;93937.56;;;14.47;100.00
7918;BME280;4004;42.624;23.386;2022-09-13T03:53:15;93929.03;;;14.42;100.00
7918;BME280;4004;42.624;23.386;2022-09-13T03:55:44;93932.13;;;14.44;100.00
7918;BME280;4004;42.624;23.386;2022-09-13T03:58:12;93936.78;;;14.43;100.00
7918;BME280;4004;42.624;23.386;2022-09-13T04:00:40;93932.50;;;14.42;100.00
7918;BME280;4004;42.624;23.386;2022-09-13T04:03:07;93938.72;;;14.50;99.37
7918;BME280;4004;42.624;23.386;2022-09-13T04:05:34;93927.50;;;14.51;99.53
7918;BME280;4004;42.624;23.386;2022-09-13T04:08:03;93935.25;;;14.53;99.18
7918;BME280;4004;42.624;23.386;2022-09-13T04:10:30;93940.31;;;14.65;99.25
7918;BME280;4004;42.624;23.386;2022-09-13T04:12:57;93936.44;;;14.66;98.58
7918;BME280;4004;42.624;23.386;2022-09-13T04:15:25;93935.66;;;14.69;98.28
7918;BME280;4004;42.624;23.386;2022-09-13T04:17:52;93938.78;;;14.75;98.60
7918;BME280;4004;42.624;23.386;2022-09-13T04:20:19;93935.31;;;14.85;97.57
7918;BME280;4004;42.624;23.386;2022-09-13T04:22:50;93935.31;;;14.85;96.75
7918;BME280;4004;42.624;23.386;2022-09-13T04:25:18;93933.00;;;14.95;96.47
7918;BME280;4004;42.624;23.386;2022-09-13T04:27:45;93944.16;;;15.18;94.49
7918;BME280;4004;42.624;23.386;2022-09-13T04:30:12;93936.03;;;15.18;93.65
7918;BME280;4004;42.624;23.386;2022-09-13T04:32:41;93939.50;;;15.29;91.24
7918;BME280;4004;42.624;23.386;2022-09-13T04:35:08;93949.59;;;15.25;91.05
7918;BME280;4004;42.624;23.386;2022-09-13T04:37:36;93947.19;;;15.81;88.73
7918;BME280;4004;42.624;23.386;2022-09-13T04:40:03;93949.09;;;16.62;82.75
7918;BME280;4004;42.624;23.386;2022-09-13T04:42:32;93951.47;;;17.57;76.97
7918;BME280;4004;42.624;23.386;2022-09-13T04:44:58;93962.34;;;18.56;70.62
7918;BME280;4004;42.624;23.386;2022-09-13T04:47:25;93963.28;;;19.51;65.56
7918;BME280;4004;42.624;23.386;2022-09-13T04:49:52;93968.31;;;20.36;59.72
7918;BME280;4004;42.624;23.386;2022-09-13T04:52:19;93957.47;;;20.89;56.04
7918;BME280;4004;42.624;23.386;2022-09-13T04:54:46;93971.31;;;21.64;53.89
7918;BME280;4004;42.624;23.386;2022-09-13T04:57:13;93976.59;;;22.17;51.60
7918;BME280;4004;42.624;23.386;2022-09-13T04:59:42;93970.22;;;22.49;49.67
7918;BME280;4004;42.624;23.386;2022-09-13T05:02:09;93981.97;;;22.62;48.61
7918;BME280;4004;42.624;23.386;2022-09-13T05:04:35;93988.91;;;22.80;48.43
7918;BME280;4004;42.624;23.386;2022-09-13T05:07:03;93983.00;;;22.26;48.10
7918;BME280;4004;42.624;23.386;2022-09-13T05:09:30;93987.63;;;22.42;48.26
7918;BME280;4004;42.624;23.386;2022-09-13T05:11:57;93985.41;;;22.24;48.72
7918;BME280;4004;42.624;23.386;2022-09-13T05:14:24;93984.22;;;22.09;48.87
7918;BME280;4004;42.624;23.386;2022-09-13T05:16:52;93982.91;;;21.84;49.33
7918;BME280;4004;42.624;23.386;2022-09-13T05:19:19;93979.34;;;21.22;50.45
7918;BME280;4004;42.624;23.386;2022-09-13T05:21:45;93982.75;;;20.93;51.71
7918;BME280;4004;42.624;23.386;2022-09-13T05:24:12;93978.31;;;20.63;53.19
7918;BME280;4004;42.624;23.386;2022-09-13T05:26:39;93969.00;;;20.60;55.27
7918;BME280;4004;42.624;23.386;2022-09-13T05:29:06;93978.41;;;20.59;55.67
7918;BME280;4004;42.624;23.386;2022-09-13T05:31:35;93983.88;;;20.59;56.05
7918;BME280;4004;42.624;23.386;2022-09-13T05:34:05;93980.69;;;20.61;56.45
7918;BME280;4004;42.624;23.386;2022-09-13T05:36:32;93974.13;;;20.58;55.95
7918;BME280;4004;42.624;23.386;2022-09-13T05:38:59;93988.63;;;20.91;55.06
7918;BME280;4004;42.624;23.386;2022-09-13T05:41:26;93976.34;;;21.16;53.89
7918;BME280;4004;42.624;23.386;2022-09-13T05:43:53;93983.38;;;21.17;53.73
7918;BME280;4004;42.624;23.386;2022-09-13T05:46:20;93970.75;;;21.23;53.60
7918;BME280;4004;42.624;23.386;2022-09-13T05:48:48;93983.81;;;21.48;52.91
7918;BME280;4004;42.624;23.386;2022-09-13T05:51:17;93982.00;;;21.58;50.88
7918;BME280;4004;42.624;23.386;2022-09-13T05:53:45;93988.25;;;22.33;49.60
7918;BME280;4004;42.624;23.386;2022-09-13T05:56:14;93985.44;;;23.17;47.13
7918;BME280;4004;42.624;23.386;2022-09-13T05:58:42;93983.94;;;23.77;45.47
7918;BME280;4004;42.624;23.386;2022-09-13T06:01:10;93979.00;;;24.07;43.45
7918;BME280;4004;42.624;23.386;2022-09-13T06:03:38;93972.75;;;24.28;42.69
7918;BME280;4004;42.624;23.386;2022-09-13T06:06:06;93988.97;;;24.79;42.07
7918;BME280;4004;42.624;23.386;2022-09-13T06:08:34;93988.06;;;24.82;40.80
7918;BME280;4004;42.624;23.386;2022-09-13T06:11:02;93979.06;;;24.82;40.61
7918;BME280;4004;42.624;23.386;2022-09-13T06:13:30;93984.47;;;24.95;40.52
7918;BME280;4004;42.624;23.386;2022-09-13T06:15:59;93993.78;;;24.97;40.47
7918;BME280;4004;42.624;23.386;2022-09-13T06:18:26;93989.63;;;24.84;40.12
7918;BME280;4004;42.624;23.386;2022-09-13T06:20:57;93992.56;;;24.67;40.15
7918;BME280;4004;42.624;23.386;2022-09-13T06:23:25;93992.22;;;24.87;40.27
7918;BME280;4004;42.624;23.386;2022-09-13T06:26:00;93996.63;;;24.85;40.25
7918;BME280;4004;42.624;23.386;2022-09-13T06:28:27;93993.22;;;25.12;39.40
7918;BME280;4004;42.624;23.386;2022-09-13T06:30:59;94007.16;;;25.08;39.26
7918;BME280;4004;42.624;23.386;2022-09-13T06:33:26;94004.63;;;25.23;39.26
7918;BME280;4004;42.624;23.386;2022-09-13T06:35:53;93999.63;;;25.40;38.78
7918;BME280;4004;42.624;23.386;2022-09-13T06:38:20;94011.97;;;25.76;38.63
7918;BME280;4004;42.624;23.386;2022-09-13T06:40:47;94004.75;;;25.60;38.43
7918;BME280;4004;42.624;23.386;2022-09-13T06:43:15;93998.09;;;24.76;39.21
7918;BME280;4004;42.624;23.386;2022-09-13T06:45:42;94017.22;;;24.80;39.84
7918;BME280;4004;42.624;23.386;2022-09-13T06:48:08;94020.19;;;24.86;40.00
7918;BME280;4004;42.624;23.386;2022-09-13T06:50:35;94018.78;;;24.59;39.85
7918;BME280;4004;42.624;23.386;2022-09-13T06:53:02;94029.91;;;24.20;40.82
7918;BME280;4004;42.624;23.386;2022-09-13T06:55:28;94026.09;;;24.18;41.16
7918;BME280;4004;42.624;23.386;2022-09-13T06:57:55;94032.78;;;24.52;40.84
7918;BME280;4004;42.624;23.386;2022-09-13T07:00:24;94031.91;;;24.42;40.86
7918;BME280;4004;42.624;23.386;2022-09-13T07:02:51;94026.44;;;24.64;40.22
7918;BME280;4004;42.624;23.386;2022-09-13T07:05:18;94033.03;;;24.10;40.93
7918;BME280;4004;42.624;23.386;2022-09-13T07:07:45;94034.06;;;24.25;41.66
7918;BME280;4004;42.624;23.386;2022-09-13T07:10:12;94031.31;;;24.60;40.73
7918;BME280;4004;42.624;23.386;2022-09-13T07:12:40;94030.66;;;24.78;40.39
7918;BME280;4004;42.624;23.386;2022-09-13T07:15:07;94028.47;;;24.95;40.62
7918;BME280;4004;42.624;23.386;2022-09-13T07:20:42;94044.63;;;24.61;40.78
7918;BME280;4004;42.624;23.386;2022-09-13T07:23:09;94039.44;;;24.29;41.03
7918;BME280;4004;42.624;23.386;2022-09-13T07:25:36;94037.25;;;24.58;40.76
7918;BME280;4004;42.624;23.386;2022-09-13T07:28:02;94036.59;;;24.54;40.75
7918;BME280;4004;42.624;23.386;2022-09-13T07:30:29;94037.78;;;24.66;40.47
7918;BME280;4004;42.624;23.386;2022-09-13T07:32:56;94047.41;;;24.93;40.04
7918;BME280;4004;42.624;23.386;2022-09-13T07:35:22;94034.38;;;24.62;39.50
7918;BME280;4004;42.624;23.386;2022-09-13T07:37:50;94042.13;;;24.19;39.16
7918;BME280;4004;42.624;23.386;2022-09-13T07:40:17;94042.91;;;24.07;39.61
7918;BME280;4004;42.624;23.386;2022-09-13T07:42:44;94048.31;;;24.11;39.95
7918;BME280;4004;42.624;23.386;2022-09-13T07:45:11;94047.59;;;23.72;40.65
7918;BME280;4004;42.624;23.386;2022-09-13T07:47:38;94046.41;;;23.47;41.03
7918;BME280;4004;42.624;23.386;2022-09-13T07:50:06;94046.31;;;23.25;41.20
7918;BME280;4004;42.624;23.386;2022-09-13T07:52:32;94044.78;;;23.11;41.55
7918;BME280;4004;42.624;23.386;2022-09-13T07:55:04;94056.84;;;23.52;40.26
7918;BME280;4004;42.624;23.386;2022-09-13T07:57:31;94049.03;;;23.64;39.97
7918;BME280;4004;42.624;23.386;2022-09-13T07:59:57;94051.25;;;23.30;40.05
7918;BME280;4004;42.624;23.386;2022-09-13T08:02:24;94035.16;;;22.77;41.32
7918;BME280;4004;42.624;23.386;2022-09-13T08:04:51;94057.97;;;22.74;41.00
7918;BME280;4004;42.624;23.386;2022-09-13T08:07:18;94051.69;;;22.61;41.02
7918;BME280;4004;42.624;23.386;2022-09-13T08:09:44;94059.38;;;22.66;41.34
7918;BME280;4004;42.624;23.386;2022-09-13T08:12:12;94046.28;;;22.58;42.65
7918;BME280;4004;42.624;23.386;2022-09-13T08:14:39;94052.16;;;22.72;42.01
7918;BME280;4004;42.624;23.386;2022-09-13T08:17:06;94054.13;;;22.85;41.74
7918;BME280;4004;42.624;23.386;2022-09-13T08:19:33;94053.78;;;22.70;41.82
7918;BME280;4004;42.624;23.386;2022-09-13T08:22:00;94050.56;;;22.59;41.50
7918;BME280;4004;42.624;23.386;2022-09-13T08:24:26;94052.31;;;22.52;40.79
7918;BME280;4004;42.624;23.386;2022-09-13T08:26:53;94046.03;;;22.52;41.10
7918;BME280;4004;42.624;23.386;2022-09-13T08:29:22;94045.19;;;22.55;41.12
7918;BME280;4004;42.624;23.386;2022-09-13T08:31:49;94051.00;;;22.57;41.55
7918;BME280;4004;42.624;23.386;2022-09-13T08:34:16;94034.28;;;22.81;39.84
7918;BME280;4004;42.624;23.386;2022-09-13T08:36:44;94033.97;;;22.91;39.68
7918;BME280;4004;42.624;23.386;2022-09-13T08:39:11;94036.97;;;23.10;39.95
7918;BME280;4004;42.624;23.386;2022-09-13T08:42:05;94026.31;;;22.99;38.97
7918;BME280;4004;42.624;23.386;2022-09-13T08:44:40;94043.59;;;22.70;38.43
7918;BME280;4004;42.624;23.386;2022-09-13T08:47:33;94049.75;;;22.74;38.91
7918;BME280;4004;42.624;23.386;2022-09-13T08:50:09;94041.03;;;22.63;38.95
7918;BME280;4004;42.624;23.386;2022-09-13T08:52:44;94034.63;;;22.83;38.27
7918;BME280;4004;42.624;23.386;2022-09-13T08:55:22;94038.63;;;22.52;37.28
7918;BME280;4004;42.624;23.386;2022-09-13T08:57:55;94040.31;;;22.33;38.24
7918;BME280;4004;42.624;23.386;2022-09-13T09:00:30;94031.53;;;22.39;37.97
7918;BME280;4004;42.624;23.386;2022-09-13T09:03:16;94027.91;;;22.29;37.25
7918;BME280;4004;42.624;23.386;2022-09-13T09:05:49;94031.72;;;22.02;37.29
7918;BME280;4004;42.624;23.386;2022-09-13T09:08:26;94025.97;;;22.13;37.79
7918;BME280;4004;42.624;23.386;2022-09-13T09:10:56;94030.41;;;22.07;37.76
7918;BME280;4004;42.624;23.386;2022-09-13T09:13:28;94023.34;;;21.93;37.86
7918;BME280;4004;42.624;23.386;2022-09-13T09:15:59;94027.19;;;21.96;38.50
7918;BME280;4004;42.624;23.386;2022-09-13T09:18:29;94031.50;;;21.80;39.29
7918;BME280;4004;42.624;23.386;2022-09-13T09:21:00;94037.13;;;21.89;39.24
7918;BME280;4004;42.624;23.386;2022-09-13T09:23:29;94039.84;;;22.06;39.90
7918;BME280;4004;42.624;23.386;2022-09-13T09:26:09;94021.03;;;22.21;38.37
7918;BME280;4004;42.624;23.386;2022-09-13T09:28:38;94034.53;;;22.44;37.51
7918;BME280;4004;42.624;23.386;2022-09-13T09:31:11;94037.56;;;22.75;37.03
7918;BME280;4004;42.624;23.386;2022-09-13T09:33:55;94027.63;;;22.82;36.24
7918;BME280;4004;42.624;23.386;2022-09-13T09:36:34;94029.00;;;22.73;36.34
7918;BME280;4004;42.624;23.386;2022-09-13T09:39:03;94026.69;;;22.59;36.34
7918;BME280;4004;42.624;23.386;2022-09-13T09:41:31;94016.66;;;22.82;36.47
7918;BME280;4004;42.624;23.386;2022-09-13T09:44:07;94012.00;;;22.53;35.94
7918;BME280;4004;42.624;23.386;2022-09-13T09:46:41;94007.56;;;22.30;36.75
7918;BME280;4004;42.624;23.386;2022-09-13T09:49:14;94017.50;;;22.07;37.41
7918;BME280;4004;42.624;23.386;2022-09-13T09:52:01;94017.44;;;22.40;37.05
7918;BME280;4004;42.624;23.386;2022-09-13T09:54:32;94011.06;;;22.72;36.26
7918;BME280;4004;42.624;23.386;2022-09-13T09:57:00;94008.81;;;22.67;36.16
7918;BME280;4004;42.624;23.386;2022-09-13T09:59:28;94004.19;;;22.51;36.01
7918;BME280;4004;42.624;23.386;2022-09-13T10:01:58;94006.97;;;22.64;36.17
7918;BME280;4004;42.624;23.386;2022-09-13T10:04:27;94010.41;;;22.94;36.05
7918;BME280;4004;42.624;23.386;2022-09-13T10:07:09;94002.22;;;23.07;35.97
7918;BME280;4004;42.624;23.386;2022-09-13T10:09:36;94002.56;;;23.22;36.18
7918;BME280;4004;42.624;23.386;2022-09-13T10:12:03;93990.16;;;23.04;36.13
7918;BME280;4004;42.624;23.386;2022-09-13T10:14:36;93991.53;;;22.83;36.14
7918;BME280;4004;42.624;23.386;2022-09-13T10:17:13;93981.44;;;22.54;37.17
7918;BME280;4004;42.624;23.386;2022-09-13T10:19:50;93979.66;;;22.48;37.75
7918;BME280;4004;42.624;23.386;2022-09-13T10:22:19;93976.03;;;22.51;37.63
7918;BME280;4004;42.624;23.386;2022-09-13T10:24:46;93983.47;;;22.38;37.56
7918;BME280;4004;42.624;23.386;2022-09-13T10:27:19;93984.47;;;22.14;37.84
7918;BME280;4004;42.624;23.386;2022-09-13T10:29:48;93984.34;;;22.34;37.69
7918;BME280;4004;42.624;23.386;2022-09-13T10:32:18;93977.66;;;22.35;37.81
7918;BME280;4004;42.624;23.386;2022-09-13T10:34:45;93977.78;;;22.45;38.19
7918;BME280;4004;42.624;23.386;2022-09-13T10:37:16;93972.72;;;22.14;37.79
7918;BME280;4004;42.624;23.386;2022-09-13T10:39:58;93971.19;;;22.13;37.75
7918;BME280;4004;42.624;23.386;2022-09-13T10:42:27;93972.84;;;22.10;37.55
7918;BME280;4004;42.624;23.386;2022-09-13T10:44:57;93969.22;;;22.13;37.08
7918;BME280;4004;42.624;23.386;2022-09-13T10:47:29;93948.09;;;21.85;37.16
7918;BME280;4004;42.624;23.386;2022-09-13T10:50:11;93961.28;;;21.90;37.11
7918;BME280;4004;42.624;23.386;2022-09-13T10:52:42;93949.31;;;21.84;37.87
7918;BME280;4004;42.624;23.386;2022-09-13T10:55:33;93948.97;;;21.82;37.41
7918;BME280;4004;42.624;23.386;2022-09-13T10:58:17;93944.34;;;21.79;37.65
7918;BME280;4004;42.624;23.386;2022-09-13T11:01:03;93944.13;;;21.73;37.27
7918;BME280;4004;42.624;23.386;2022-09-13T11:06:29;93951.38;;;21.80;37.60
7918;BME280;4004;42.624;23.386;2022-09-13T11:09:07;93948.56;;;21.83;37.55
7918;BME280;4004;42.624;23.386;2022-09-13T11:11:41;93953.97;;;21.70;37.64
7918;BME280;4004;42.624;23.386;2022-09-13T11:14:27;93945.31;;;21.72;38.45
7918;BME280;4004;42.624;23.386;2022-09-13T11:17:03;93945.97;;;21.76;38.03
7918;BME280;4004;42.624;23.386;2022-09-13T11:19:57;93944.06;;;21.89;37.31
7918;BME280;4004;42.624;23.386;2022-09-13T11:22:44;93947.81;;;21.96;36.85
7918;BME280;4004;42.624;23.386;2022-09-13T11:25:31;93947.41;;;21.97;37.77
7918;BME280;4004;42.624;23.386;2022-09-13T11:28:06;93928.91;;;22.01;37.50
7918;BME280;4004;42.624;23.386;2022-09-13T11:30:44;93934.84;;;22.12;37.14
7918;BME280;4004;42.624;23.386;2022-09-13T11:33:32;93934.41;;;22.14;37.29
7918;BME280;4004;42.624;23.386;2022-09-13T11:36:21;93933.41;;;22.08;36.03
7918;BME280;4004;42.624;23.386;2022-09-13T11:39:01;93928.03;;;22.04;36.84
7918;BME280;4004;42.624;23.386;2022-09-13T11:41:38;93916.88;;;22.11;36.78
7918;BME280;4004;42.624;23.386;2022-09-13T11:44:27;93938.09;;;22.07;37.13
7918;BME280;4004;42.624;23.386;2022-09-13T11:47:04;93926.38;;;22.07;36.57
7918;BME280;4004;42.624;23.386;2022-09-13T11:49:47;93917.13;;;22.17;35.70
7918;BME280;4004;42.624;23.386;2022-09-13T11:52:26;93923.31;;;22.05;36.05
7918;BME280;4004;42.624;23.386;2022-09-13T11:55:10;93917.38;;;21.93;36.26
7918;BME280;4004;42.624;23.386;2022-09-13T11:57:41;93909.28;;;21.90;36.58
7918;BME280;4004;42.624;23.386;2022-09-13T12:00:18;93922.22;;;21.73;36.58
7918;BME280;4004;42.624;23.386;2022-09-13T12:02:50;93923.59;;;21.81;36.74
7918;BME280;4004;42.624;23.386;2022-09-13T12:05:19;93916.06;;;21.98;36.63
7918;BME280;4004;42.624;23.386;2022-09-13T12:07:52;93926.72;;;22.09;36.74
7918;BME280;4004;42.624;23.386;2022-09-13T12:10:22;93920.91;;;22.23;35.95
7918;BME280;4004;42.624;23.386;2022-09-13T12:12:51;93921.34;;;22.34;35.96
7918;BME280;4004;42.624;23.386;2022-09-13T12:15:22;93920.69;;;22.43;35.53
7918;BME280;4004;42.624;23.386;2022-09-13T12:17:57;93924.72;;;22.39;35.84
7918;BME280;4004;42.624;23.386;2022-09-13T12:20:30;93915.53;;;22.45;36.29
7918;BME280;4004;42.624;23.386;2022-09-13T12:23:03;93911.78;;;22.26;35.56
7918;BME280;4004;42.624;23.386;2022-09-13T12:25:37;93911.38;;;22.41;35.49
7918;BME280;4004;42.624;23.386;2022-09-13T12:28:14;93907.84;;;22.27;35.58
7918;BME280;4004;42.624;23.386;2022-09-13T12:30:45;93918.97;;;22.20;36.00
7918;BME280;4004;42.624;23.386;2022-09-13T12:33:16;93916.03;;;22.14;36.54
7918;BME280;4004;42.624;23.386;2022-09-13T12:36:08;93908.16;;;22.29;36.66
7918;BME280;4004;42.624;23.386;2022-09-13T12:41:59;93909.16;;;22.23;35.56
7918;BME280;4004;42.624;23.386;2022-09-13T12:44:42;93905.91;;;22.11;35.34
7918;BME280;4004;42.624;23.386;2022-09-13T12:47:32;93916.13;;;22.11;35.82
7918;BME280;4004;42.624;23.386;2022-09-13T12:50:17;93895.44;;;22.10;35.78
7918;BME280;4004;42.624;23.386;2022-09-13T12:52:54;93907.09;;;21.98;36.57
7918;BME280;4004;42.624;23.386;2022-09-13T12:56:01;93904.75;;;21.83;36.62
7918;BME280;4004;42.624;23.386;2022-09-13T12:58:39;93901.50;;;21.88;36.18
7918;BME280;4004;42.624;23.386;2022-09-13T13:01:13;93908.41;;;21.93;36.10
7918;BME280;4004;42.624;23.386;2022-09-13T13:03:50;93908.25;;;21.84;36.60
7918;BME280;4004;42.624;23.386;2022-09-13T13:06:31;93900.69;;;21.75;36.90
7918;BME280;4004;42.624;23.386;2022-09-13T13:09:03;93911.38;;;21.69;37.13
7918;BME280;4004;42.624;23.386;2022-09-13T13:11:42;93915.16;;;21.88;37.27
7918;BME280;4004;42.624;23.386;2022-09-13T13:17:44;93907.38;;;21.87;37.31
7918;BME280;4004;42.624;23.386;2022-09-13T13:20:40;93911.22;;;21.89;36.73
7918;BME280;4004;42.624;23.386;2022-09-13T13:23:22;93913.63;;;21.87;37.45
7918;BME280;4004;42.624;23.386;2022-09-13T13:26:10;93908.94;;;21.88;36.75
7918;BME280;4004;42.624;23.386;2022-09-13T13:31:35;93907.66;;;21.76;37.48
7918;BME280;4004;42.624;23.386;2022-09-13T13:34:27;93919.41;;;21.77;38.27
7918;BME280;4004;42.624;23.386;2022-09-13T13:36:59;93913.94;;;21.77;38.60
7918;BME280;4004;42.624;23.386;2022-09-13T13:39:35;93916.41;;;21.71;38.83
7918;BME280;4004;42.624;23.386;2022-09-13T13:42:21;93918.81;;;21.69;38.66
7918;BME280;4004;42.624;23.386;2022-09-13T13:45:05;93922.66;;;21.71;38.58
7918;BME280;4004;42.624;23.386;2022-09-13T13:51:14;93921.56;;;21.69;38.06
7918;BME280;4004;42.624;23.386;2022-09-13T13:53:44;93923.75;;;21.74;38.15
7918;BME280;4004;42.624;23.386;2022-09-13T13:56:24;93916.06;;;21.69;39.04